Time;durP1;ratioP1;P1;durP2;ratioP2;P2;SDS_P1;SDS_P2;PMS_P1;PMS_P2;Temp;Humidity;BMP_temperature;BMP_pressure;BME280_temperature;BME280_humidity;BME280_pressure;Samples;Min_cycle;Max_cycle;Signal;HPM_P1;HPM_P2
2022/08/07 00:00:39;;;;;;;1999.90;999.90;;;;;;;21.64;64.11;95921.91;5051873;28;20017;-69
2022/08/07 00:03:04;;;;;;;1999.90;999.90;;;;;;;22.04;64.40;95973.81;5050205;28;20353;-67
2022/08/07 00:05:30;;;;;;;1999.90;999.90;;;;;;;21.87;63.60;95973.47;5042802;28;20049;-67
2022/08/07 00:07:55;;;;;;;1999.90;999.90;;;;;;;21.98;64.03;95972.53;5042759;28;20028;-70
2022/08/07 00:10:23;;;;;;;1999.90;999.90;;;;;;;21.59;63.10;95969.00;5051387;28;20541;-69
2022/08/07 00:12:49;;;;;;;1999.90;999.90;;;;;;;21.46;62.41;95946.72;5051174;28;20025;-67
2022/08/07 00:15:15;;;;;;;1999.90;999.90;;;;;;;21.59;62.61;95973.63;5039095;28;20030;-69
2022/08/07 00:17:40;;;;;;;1999.90;999.90;;;;;;;21.59;62.71;95969.00;5031256;28;20494;-68
2022/08/07 00:20:06;;;;;;;1999.90;999.90;;;;;;;21.90;64.81;95959.19;5031274;28;20112;-68
2022/08/07 00:22:32;;;;;;;1999.90;999.90;;;;;;;21.92;63.69;95973.19;5036772;28;20029;-67
2022/08/07 00:24:57;;;;;;;1999.90;999.90;;;;;;;22.06;63.91;95965.34;5050655;28;20115;-69
2022/08/07 00:27:23;;;;;;;1999.90;999.90;;;;;;;21.82;64.31;95955.56;5051294;28;20469;-69
2022/08/07 00:29:48;;;;;;;1999.90;999.90;;;;;;;22.02;63.07;95976.09;5051429;28;20032;-69
2022/08/07 00:32:14;;;;;;;1999.90;999.90;;;;;;;21.77;60.49;95963.97;5046351;28;20037;-67
2022/08/07 00:34:39;;;;;;;1999.90;999.90;;;;;;;21.66;62.56;95946.72;5031322;28;20028;-67
2022/08/07 00:37:05;;;;;;;1999.90;999.90;;;;;;;22.08;63.22;95979.31;5031470;28;20026;-69
2022/08/07 00:39:34;;;;;;;1999.90;999.90;;;;;;;22.18;63.52;95969.84;5050964;28;20548;-69
2022/08/07 00:42:00;;;;;;;1999.90;999.90;;;;;;;21.21;61.35;95910.94;5050879;28;20029;-69
2022/08/07 00:44:25;;;;;;;1999.90;999.90;;;;;;;21.68;61.50;95955.28;5044307;28;20091;-68
2022/08/07 00:46:51;;;;;;;1999.90;999.90;;;;;;;21.58;63.36;95942.28;5030928;28;20417;-69
2022/08/07 00:49:16;;;;;;;1999.90;999.90;;;;;;;21.81;61.01;95943.19;5030928;28;20021;-68
2022/08/07 00:51:45;;;;;;;1999.90;999.90;;;;;;;21.97;63.22;95946.59;5030822;28;20076;-69
2022/08/07 00:54:13;;;;;;;1999.90;999.90;;;;;;;21.96;62.06;95936.13;5045855;28;20261;-69
2022/08/07 00:56:39;;;;;;;1999.90;999.90;;;;;;;21.82;61.35;95909.53;5050812;28;20033;-68
2022/08/07 00:59:05;;;;;;;1999.90;999.90;;;;;;;21.50;58.35;95903.47;5050731;28;20474;-69
2022/08/07 01:01:31;;;;;;;1999.90;999.90;;;;;;;21.53;61.62;95954.97;5050512;28;20029;-69
2022/08/07 01:03:56;;;;;;;1999.90;999.90;;;;;;;21.23;61.66;95916.00;5036501;28;20033;-69
2022/08/07 01:06:22;;;;;;;1999.90;999.90;;;;;;;21.25;60.50;95913.75;5030467;28;20051;-68
2022/08/07 01:08:47;;;;;;;1999.90;999.90;;;;;;;20.74;59.25;95849.63;5038714;28;20029;-68
2022/08/07 01:11:14;;;;;;;1999.90;999.90;;;;;;;21.47;60.13;95942.84;5050548;28;20021;-68
2022/08/07 01:13:40;;;;;;;1999.90;999.90;;;;;;;20.72;61.97;95881.63;5049945;28;20100;-68
2022/08/07 01:16:10;;;;;;;1999.90;999.90;;;;;;;21.39;63.49;95932.22;5048824;28;20062;-70
2022/08/07 01:18:35;;;;;;;1999.90;999.90;;;;;;;20.66;60.96;95830.91;5050010;28;20104;-70
2022/08/07 01:21:19;;;;;;;1999.90;999.90;;;;;;;21.74;61.28;95938.38;5048945;28;20159;-70
2022/08/07 01:23:46;;;;;;;1999.90;999.90;;;;;;;21.68;60.38;95942.53;5049028;28;20029;-70
2022/08/07 01:26:13;;;;;;;1999.90;999.90;;;;;;;20.35;58.67;95737.13;5049887;28;20655;-70
2022/08/07 01:28:42;;;;;;;1999.90;999.90;;;;;;;21.08;59.54;95827.56;5032022;28;20482;-71
2022/08/07 01:31:08;;;;;;;1999.90;999.90;;;;;;;21.27;60.65;95876.28;5050094;28;20037;-71
2022/08/07 01:33:34;;;;;;;1999.90;999.90;;;;;;;20.51;61.45;95733.28;5042483;28;20087;-71
2022/08/07 01:36:01;;;;;;;1999.90;999.90;;;;;;;20.29;59.78;95771.72;5030094;28;20036;-70
2022/08/07 01:38:27;;;;;;;1999.90;999.90;;;;;;;20.53;60.40;95778.09;5033284;28;20105;-70
2022/08/07 01:41:02;;;;;;;1999.90;999.90;;;;;;;20.85;58.61;95838.28;5031831;28;20028;-70
2022/08/07 01:43:28;;;;;;;1999.90;999.90;;;;;;;21.28;61.10;95902.97;5049347;28;20077;-70
2022/08/07 01:45:55;;;;;;;1999.90;999.90;;;;;;;20.81;59.95;95848.22;5048932;28;20703;-70
2022/08/07 01:48:21;;;;;;;1999.90;999.90;;;;;;;20.30;59.68;95794.13;5049686;28;20036;-69
2022/08/07 01:50:52;;;;;;;1999.90;999.90;;;;;;;19.90;59.68;95695.97;5032013;28;20021;-70
2022/08/07 01:53:20;;;;;;;1999.90;999.90;;;;;;;21.35;61.33;95896.22;5048778;28;20113;-70
2022/08/07 01:55:50;;;;;;;1999.90;999.90;;;;;;;20.93;60.70;95856.22;5029795;28;20033;-70
2022/08/07 01:58:20;;;;;;;1999.90;999.90;;;;;;;21.54;62.38;95920.56;5029582;28;20021;-71
2022/08/07 02:00:50;;;;;;;1999.90;999.90;;;;;;;20.55;58.36;95787.41;5029672;28;20104;-71
2022/08/07 02:03:20;;;;;;;1999.90;999.90;;;;;;;20.33;58.89;95752.91;5027823;28;20547;-71
2022/08/07 02:05:51;;;;;;;1999.90;999.90;;;;;;;21.42;60.62;95907.94;5048830;28;20033;-70
2022/08/07 02:08:21;;;;;;;1999.90;999.90;;;;;;;20.54;59.78;95761.53;5049182;28;20028;-70
2022/08/07 02:10:52;;;;;;;1999.90;999.90;;;;;;;21.22;61.31;95874.63;5047634;28;20493;-70
2022/08/07 02:13:20;;;;;;;1999.90;999.90;;;;;;;19.84;60.42;95699.28;5048983;28;20123;-70
2022/08/07 02:15:48;;;;;;;1999.90;999.90;;;;;;;21.26;63.41;95874.72;5044316;28;20053;-70
2022/08/07 02:18:15;;;;;;;1999.90;999.90;;;;;;;20.35;62.06;95748.72;5049145;28;20025;-69
2022/08/07 02:20:42;;;;;;;1999.90;999.90;;;;;;;20.17;59.90;95756.41;5030737;28;20028;-70
2022/08/07 02:23:10;;;;;;;1999.90;999.90;;;;;;;19.97;60.29;95727.78;5048561;28;20021;-71
2022/08/07 02:25:37;;;;;;;1999.90;999.90;;;;;;;21.11;59.64;95852.00;5048527;28;20038;-70
2022/08/07 02:28:05;;;;;;;1999.90;999.90;;;;;;;21.09;60.35;95859.69;5049282;28;20048;-69
2022/08/07 02:30:32;;;;;;;1999.90;999.90;;;;;;;21.28;61.43;95911.09;5049317;28;20446;-70
2022/08/07 02:32:59;;;;;;;1999.90;999.90;;;;;;;20.11;59.40;95746.22;5047938;28;20096;-69
2022/08/07 02:35:26;;;;;;;1999.90;999.90;;;;;;;20.73;60.27;95853.50;5031440;28;20524;-70
2022/08/07 02:37:52;;;;;;;1999.90;999.90;;;;;;;20.72;59.42;95841.06;5049184;28;20070;-70
2022/08/07 02:40:18;;;;;;;1999.90;999.90;;;;;;;20.69;59.47;95822.88;5048314;28;20027;-69
2022/08/07 02:42:54;;;;;;;1999.90;999.90;;;;;;;19.89;58.99;95731.41;5047370;28;20052;-70
2022/08/07 02:45:23;;;;;;;1999.90;999.90;;;;;;;20.53;59.65;95813.22;5049199;28;20036;-69
2022/08/07 02:47:48;;;;;;;1999.90;999.90;;;;;;;20.94;61.09;95863.22;5049053;28;20029;-69
2022/08/07 02:50:14;;;;;;;1999.90;999.90;;;;;;;20.51;61.12;95825.16;5030302;28;20021;-70
2022/08/07 02:52:43;;;;;;;1999.90;999.90;;;;;;;20.56;61.38;95837.63;5048511;28;20436;-69
2022/08/07 02:55:20;;;;;;;1999.90;999.90;;;;;;;19.95;61.02;95813.72;5048371;28;20108;-69
2022/08/07 02:57:47;;;;;;;1999.90;999.90;;;;;;;19.11;63.19;95641.19;5048983;28;20025;-70
2022/08/07 03:00:13;;;;;;;1999.90;999.90;;;;;;;20.35;61.50;95816.25;5048620;28;20033;-69
2022/08/07 03:02:45;;;;;;;1999.90;999.90;;;;;;;20.42;60.87;95826.44;5047173;28;20033;-70
2022/08/07 03:05:11;;;;;;;;;;;;;;;20.72;62.95;95886.25;5049415;28;20021;-70
2022/08/07 03:07:38;;;;;;;1999.90;999.90;;;;;;;20.18;62.20;95816.63;5048947;28;19932;-69
2022/08/07 03:10:04;;;;;;;1999.90;999.90;;;;;;;20.63;64.28;95866.75;5048097;28;20040;-68
2022/08/07 03:12:32;;;;;;;1999.90;999.90;;;;;;;20.09;62.71;95833.00;5048558;28;20074;-69
2022/08/07 03:14:59;;;;;;;1999.90;999.90;;;;;;;20.11;63.39;95879.34;5048919;28;20017;-69
2022/08/07 03:17:25;;;;;;;1999.90;999.90;;;;;;;19.91;63.06;95758.84;5048669;28;20025;-69
2022/08/07 03:19:51;;;;;;;1999.90;999.90;;;;;;;20.06;62.81;95771.56;5031518;28;20532;-69
2022/08/07 03:22:18;;;;;;;1999.90;999.90;;;;;;;20.23;62.84;95798.22;5028135;28;20053;-69
2022/08/07 03:24:43;;;;;;;1999.90;999.90;;;;;;;19.10;62.97;95697.03;5029327;28;20565;-71
2022/08/07 03:27:10;;;;;;;1999.90;999.90;;;;;;;20.39;63.82;95821.75;5048864;28;20112;-69
2022/08/07 03:29:47;;;;;;;1999.90;999.90;;;;;;;20.79;64.72;95893.78;5047874;28;20029;-69
2022/08/07 03:32:14;;;;;;;1999.90;999.90;;;;;;;20.64;62.70;95874.50;5048670;28;20104;-71
2022/08/07 03:34:43;;;;;;;1999.90;999.90;;;;;;;20.03;63.15;95785.78;5050457;28;20024;-69
2022/08/07 03:37:10;;;;;;;1999.90;999.90;;;;;;;20.34;63.41;95889.56;5032401;28;20081;-70
2022/08/07 03:39:37;;;;;;;1999.90;999.90;;;;;;;20.67;63.63;95894.63;5032057;28;20025;-70
2022/08/07 03:42:04;;;;;;;1999.90;999.90;;;;;;;19.80;64.24;95780.19;5049128;28;20055;-70
2022/08/07 03:44:32;;;;;;;1999.90;999.90;;;;;;;20.31;64.07;95858.59;5052128;28;20033;-70
2022/08/07 03:46:57;;;;;;;1999.90;999.90;;;;;;;20.46;63.22;95865.16;5047566;28;20032;-70
2022/08/07 03:49:23;;;;;;;1999.90;999.90;;;;;;;20.02;64.80;95818.53;5032064;28;20037;-70
2022/08/07 03:51:50;;;;;;;1999.90;999.90;;;;;;;20.13;64.79;95896.00;5031962;28;20079;-71
2022/08/07 03:54:16;;;;;;;1999.90;999.90;;;;;;;20.26;63.84;95883.19;5031480;28;20030;-69
2022/08/07 03:56:42;;;;;;;1999.90;999.90;;;;;;;20.07;63.89;95886.56;5044381;28;20036;-70
2022/08/07 03:59:11;;;;;;;1999.90;999.90;;;;;;;19.79;64.33;95778.63;5033934;28;20029;-70
2022/08/07 04:01:40;;;;;;;1999.90;999.90;;;;;;;19.26;64.40;95755.63;5051560;28;20033;-70
2022/08/07 04:04:06;;;;;;;1999.90;999.90;;;;;;;20.61;63.77;95887.94;5049869;28;20098;-70
2022/08/07 04:06:32;;;;;;;1999.90;999.90;;;;;;;19.57;64.63;95811.56;5050974;28;20059;-70
2022/08/07 04:08:58;;;;;;;1999.90;999.90;;;;;;;19.90;64.67;95792.38;5051411;28;20041;-70
2022/08/07 04:11:24;;;;;;;1999.90;999.90;;;;;;;19.86;63.56;95813.09;5050812;28;20032;-70
2022/08/07 04:13:50;;;;;;;1999.90;999.90;;;;;;;20.54;62.77;95880.44;5051176;28;20461;-69
2022/08/07 04:16:16;;;;;;;1999.90;999.90;;;;;;;19.64;63.83;95809.84;5051039;28;20056;-69
2022/08/07 04:18:41;;;;;;;1999.90;999.90;;;;;;;19.96;63.22;95796.38;5036540;28;20030;-69
2022/08/07 04:21:07;;;;;;;1999.90;999.90;;;;;;;18.85;62.88;95676.69;5031544;28;20029;-69
2022/08/07 04:23:33;;;;;;;1999.90;999.90;;;;;;;20.23;64.05;95844.16;5030961;28;20026;-68
2022/08/07 04:25:59;;;;;;;1999.90;999.90;;;;;;;20.17;63.34;95807.75;5034033;28;20029;-70
2022/08/07 04:28:24;;;;;;;1999.90;999.90;;;;;;;20.21;62.55;95808.59;5051167;28;20029;-70
2022/08/07 04:30:50;;;;;;;1999.90;999.90;;;;;;;19.72;63.68;95800.03;5051443;28;20079;-71
2022/08/07 04:33:16;;;;;;;1999.90;999.90;;;;;;;20.13;61.61;95833.88;5050589;28;20075;-70
2022/08/07 04:35:46;;;;;;;1999.90;999.90;;;;;;;20.64;60.98;95889.94;5036794;28;20033;-70
2022/08/07 04:38:12;;;;;;;1999.90;999.90;;;;;;;20.65;60.80;95881.47;5030917;28;20116;-69
2022/08/07 04:40:39;;;;;;;1999.90;999.90;;;;;;;20.07;62.13;95821.75;5031174;28;20470;-70
2022/08/07 04:43:04;;;;;;;1999.90;999.90;;;;;;;20.37;61.09;95861.84;5047280;28;20462;-70
2022/08/07 04:46:05;;;;;;;1999.90;999.90;;;;;;;20.91;60.93;95882.84;5050253;28;20063;-70
2022/08/07 04:49:10;;;;;;;1999.90;999.90;;;;;;;20.98;60.29;95881.06;5051578;28;20029;-70
2022/08/07 04:51:50;;;;;;;1999.90;999.90;;;;;;;20.93;59.68;95885.97;5049858;28;20031;-70
2022/08/07 04:54:26;;;;;;;1999.90;999.90;;;;;;;20.79;59.78;95880.25;5050152;28;20025;-70
2022/08/07 04:56:58;;;;;;;1999.90;999.90;;;;;;;20.21;60.38;95800.47;5049905;28;20104;-70
2022/08/07 04:59:29;;;;;;;1999.90;999.90;;;;;;;20.80;60.72;95879.88;5050776;28;20512;-69
2022/08/07 05:02:04;;;;;;;1999.90;999.90;;;;;;;21.04;59.62;95887.00;5050510;28;20029;-70
2022/08/07 05:04:41;;;;;;;1999.90;999.90;;;;;;;20.63;60.09;95832.41;5049775;28;20057;-70
2022/08/07 05:07:15;;;;;;;1999.90;999.90;;;;;;;20.98;59.64;95861.34;5051040;28;20021;-71
2022/08/07 05:10:09;;;;;;;1999.90;999.90;;;;;;;21.37;60.88;95888.50;5050991;28;20082;-71
2022/08/07 05:12:40;;;;;;;1999.90;999.90;;;;;;;20.21;58.46;95770.78;5049270;28;20112;-69
2022/08/07 05:15:17;;;;;;;;;;;;;;;20.92;58.56;95887.88;5051005;28;20077;-70
2022/08/07 05:17:48;;;;;;;1999.90;999.90;;;;;;;20.91;57.39;95853.09;5050423;28;19967;-69
2022/08/07 05:20:16;;;;;;;1999.90;999.90;;;;;;;21.39;56.75;95891.63;5049416;28;20377;-69
2022/08/07 05:22:45;;;;;;;1999.90;999.90;;;;;;;20.95;56.96;95859.38;5049845;28;20029;-70
2022/08/07 05:25:14;;;;;;;1999.90;999.90;;;;;;;21.32;56.44;95859.78;5049514;28;20029;-70
2022/08/07 05:27:41;;;;;;;1999.90;999.90;;;;;;;21.42;56.67;95891.72;5049192;28;20025;-70
2022/08/07 05:30:08;;;;;;;1999.90;999.90;;;;;;;21.17;56.40;95855.97;5049305;28;20025;-70
2022/08/07 05:32:34;;;;;;;1999.90;999.90;;;;;;;21.39;55.47;95848.31;5049352;28;20043;-70
2022/08/07 05:35:01;;;;;;;1999.90;999.90;;;;;;;21.20;57.72;95817.41;5048791;28;20159;-71
2022/08/07 05:37:28;;;;;;;1999.90;999.90;;;;;;;21.51;56.48;95896.94;5049808;28;20028;-70
2022/08/07 05:39:55;;;;;;;1999.90;999.90;;;;;;;21.29;55.12;95860.47;5049756;28;20025;-70
2022/08/07 05:42:21;;;;;;;1999.90;999.90;;;;;;;21.36;54.89;95851.75;5048435;28;20473;-70
2022/08/07 05:44:47;;;;;;;1999.90;999.90;;;;;;;21.80;54.69;95873.88;5049780;28;20032;-71
2022/08/07 05:47:14;;;;;;;1999.90;999.90;;;;;;;21.86;55.68;95839.97;5049814;28;20481;-70
2022/08/07 05:49:40;;;;;;;1999.90;999.90;;;;;;;20.95;54.15;95781.72;5049240;28;20033;-70
2022/08/07 05:52:07;;;;;;;1999.90;999.90;;;;;;;20.99;54.06;95803.44;5048580;28;20032;-69
2022/08/07 05:54:32;;;;;;;1999.90;999.90;;;;;;;21.74;54.30;95864.50;5049600;28;20377;-70
2022/08/07 05:56:58;;;;;;;1999.90;999.90;;;;;;;22.35;54.72;95895.44;5048616;28;20020;-70
2022/08/07 05:59:24;;;;;;;1999.90;999.90;;;;;;;21.68;53.41;95891.06;5049508;28;20037;-70
2022/08/07 06:01:50;;;;;;;1999.90;999.90;;;;;;;22.12;54.42;95844.72;5049552;28;20027;-70
2022/08/07 06:04:18;;;;;;;1999.90;999.90;;;;;;;21.85;51.99;95830.25;5048970;28;20021;-70
2022/08/07 06:06:44;;;;;;;1999.90;999.90;;;;;;;22.01;51.52;95835.59;5045716;28;20025;-70
2022/08/07 06:09:09;;;;;;;1999.90;999.90;;;;;;;22.59;51.12;95886.94;5029500;28;20037;-71
2022/08/07 06:11:36;;;;;;;1999.90;999.90;;;;;;;21.62;51.40;95818.63;5031233;28;20060;-70
2022/08/07 06:14:03;;;;;;;1999.90;999.90;;;;;;;22.56;51.45;95895.78;5049124;28;20108;-70
2022/08/07 06:16:32;;;;;;;1999.90;999.90;;;;;;;22.82;50.42;95892.31;5049359;28;20032;-70
2022/08/07 06:19:00;;;;;;;1999.90;999.90;;;;;;;22.13;50.18;95802.94;5042322;28;20076;-70
2022/08/07 06:21:26;;;;;;;1999.90;999.90;;;;;;;22.55;50.66;95869.81;5029345;28;20370;-70
2022/08/07 06:23:52;;;;;;;1999.90;999.90;;;;;;;22.93;49.86;95887.88;5029161;28;20029;-70
2022/08/07 06:26:17;;;;;;;1999.90;999.90;;;;;;;23.12;49.21;95888.91;5029255;28;20386;-70
2022/08/07 06:28:47;;;;;;;1999.90;999.90;;;;;;;22.85;48.58;95810.22;5046799;28;20531;-70
2022/08/07 06:31:13;;;;;;;1999.90;999.90;;;;;;;21.79;50.60;95816.22;5049297;28;20021;-70
2022/08/07 06:33:38;;;;;;;1999.90;999.90;;;;;;;21.90;50.24;95792.03;5048045;28;20044;-70
2022/08/07 06:36:04;;;;;;;1999.90;999.90;;;;;;;22.81;50.12;95896.97;5048516;28;20052;-70
2022/08/07 06:38:29;;;;;;;1999.90;999.90;;;;;;;22.54;49.78;95873.69;5031334;28;20033;-70
2022/08/07 06:40:57;;;;;;;1999.90;999.90;;;;;;;22.67;50.06;95891.31;5040244;28;20040;-68
2022/08/07 06:43:25;;;;;;;1999.90;999.90;;;;;;;21.20;50.22;95752.47;5042493;28;20033;-75
2022/08/07 06:45:50;;;;;;;1999.90;999.90;;;;;;;22.51;49.38;95879.81;5049332;28;20063;-72
2022/08/07 06:48:16;;;;;;;1999.90;999.90;;;;;;;22.03;50.42;95822.47;5029955;28;20409;-71
2022/08/07 06:50:44;;;;;;;1999.90;999.90;;;;;;;21.50;49.44;95754.63;5036995;28;20033;-71
2022/08/07 06:53:10;;;;;;;1999.90;999.90;;;;;;;21.28;49.83;95737.91;5045335;28;20508;-71
2022/08/07 06:55:36;;;;;;;1999.90;999.90;;;;;;;21.08;50.05;95712.03;5033658;28;20107;-70
2022/08/07 06:58:05;;;;;;;1999.90;999.90;;;;;;;21.24;49.65;95736.28;5047415;28;20145;-70
2022/08/07 07:00:35;;;;;;;1999.90;999.90;;;;;;;21.43;49.29;95701.13;5031105;28;20030;-68
2022/08/07 07:03:02;;;;;;;1999.90;999.90;;;;;;;22.24;49.53;95884.41;5048530;28;20078;-67
2022/08/07 07:05:28;;;;;;;1999.90;999.90;;;;;;;21.93;48.86;95715.50;5048972;28;20078;-68
2022/08/07 07:07:53;;;;;;;1999.90;999.90;;;;;;;23.07;47.94;95895.44;5037263;28;20108;-71
2022/08/07 07:10:30;;;;;;;1999.90;999.90;;;;;;;22.82;48.33;95862.47;5018132;28;20029;-68
2022/08/07 07:13:14;;;;;;;1999.90;999.90;;;;;;;23.41;48.49;95871.84;5052508;28;20021;-69
2022/08/07 07:15:51;;;;;;;1999.90;999.90;;;;;;;24.19;45.61;95879.34;5050111;28;20884;-67
2022/08/07 07:18:29;;;;;;;1999.90;999.90;;;;;;;24.21;44.85;95888.72;5032488;28;20104;-67
2022/08/07 07:21:07;;;;;;;1999.90;999.90;;;;;;;22.71;45.28;95728.66;5018809;28;20056;-67
2022/08/07 07:23:33;;;;;;;1999.90;999.90;;;;;;;24.38;44.18;95888.13;5031950;28;20076;-67
2022/08/07 07:26:01;;;;;;;1999.90;999.90;;;;;;;23.94;43.93;95870.94;5039830;28;20461;-75
2022/08/07 07:29:08;;;;;;;1999.90;999.90;;;;;;;24.42;43.66;95846.59;5052158;28;20028;-69
2022/08/07 07:31:40;;;;;;;1999.90;999.90;;;;;;;24.14;44.09;95850.56;5007098;28;20050;-67
2022/08/07 07:34:12;;;;;;;1999.90;999.90;;;;;;;23.92;43.99;95813.47;5050463;28;20032;-67
2022/08/07 07:36:39;;;;;;;;;;;;;;;25.08;42.50;95869.22;5052760;28;20632;-67
2022/08/07 07:39:05;;;;;;;1999.90;999.90;;;;;;;24.46;43.44;95882.72;5052307;28;19912;-67
2022/08/07 07:41:33;;;;;;;1999.90;999.90;;;;;;;24.22;44.39;95873.97;5051133;28;20025;-70
2022/08/07 07:44:00;;;;;;;1999.90;999.90;;;;;;;24.89;41.82;95821.28;5050871;28;20389;-67
2022/08/07 07:46:30;;;;;;;1999.90;999.90;;;;;;;24.97;41.12;95786.69;5050062;28;20025;-67
2022/08/07 07:48:59;;;;;;;1999.90;999.90;;;;;;;25.41;41.23;95854.63;5047029;28;20346;-68
2022/08/07 07:51:27;;;;;;;1999.90;999.90;;;;;;;25.83;40.31;95859.47;5032390;28;20098;-67
2022/08/07 07:53:55;;;;;;;1999.90;999.90;;;;;;;24.34;41.10;95634.41;5049667;28;20620;-69
2022/08/07 07:56:23;;;;;;;1999.90;999.90;;;;;;;26.29;40.60;95866.97;5050821;28;20489;-68
2022/08/07 07:58:50;;;;;;;1999.90;999.90;;;;;;;26.05;39.56;95750.47;5050873;28;20024;-71
2022/08/07 08:01:17;;;;;;;1999.90;999.90;;;;;;;27.07;38.03;95847.09;5041296;28;20518;-68
2022/08/07 08:03:43;;;;;;;1999.90;999.90;;;;;;;26.54;37.44;95847.16;5037985;28;20029;-67
2022/08/07 08:06:11;;;;;;;1999.90;999.90;;;;;;;26.76;35.59;95843.22;5049977;28;20474;-69
2022/08/07 08:08:36;;;;;;;1999.90;999.90;;;;;;;27.46;35.14;95866.13;5049299;28;20036;-68
2022/08/07 08:11:07;;;;;;;1999.90;999.90;;;;;;;27.47;35.14;95840.34;5049205;28;20025;-69
2022/08/07 08:13:37;;;;;;;1999.90;999.90;;;;;;;27.20;34.58;95834.59;5048744;28;20051;-69
2022/08/07 08:16:04;;;;;;;1999.90;999.90;;;;;;;27.05;34.69;95822.13;5047894;28;20048;-69
2022/08/07 08:18:30;;;;;;;1999.90;999.90;;;;;;;26.77;35.12;95786.69;5032013;28;20035;-68
2022/08/07 08:21:00;;;;;;;1999.90;999.90;;;;;;;26.57;36.47;95852.63;5048830;28;20021;-70
2022/08/07 08:29:01;;;;;;;1999.90;999.90;;;;;;;26.37;36.68;95857.66;5050883;28;20040;-71
2022/08/07 08:31:34;;;;;;;1999.90;999.90;;;;;;;26.56;35.75;95872.09;5048745;28;20025;-69
2022/08/07 08:34:03;;;;;;;1999.90;999.90;;;;;;;27.40;34.77;95825.97;5045780;28;20096;-67
2022/08/07 08:36:32;;;;;;;1999.90;999.90;;;;;;;28.05;33.89;95862.78;5013475;28;20029;-68
2022/08/07 08:39:00;;;;;;;1999.90;999.90;;;;;;;26.22;35.92;95836.19;5034856;28;20418;-67
2022/08/07 08:41:47;;;;;;;1999.90;999.90;;;;;;;26.66;36.10;95860.38;5050154;28;20029;-68
2022/08/07 08:44:23;;;;;;;1999.90;999.90;;;;;;;26.78;35.88;95864.69;5031908;28;20032;-67
2022/08/07 08:47:21;;;;;;;1999.90;999.90;;;;;;;27.28;34.64;95843.56;5050425;28;20033;-67
2022/08/07 08:50:15;;;;;;;1999.90;999.90;;;;;;;26.92;35.42;95848.28;5051216;28;20025;-67
2022/08/07 08:52:58;;;;;;;1999.90;999.90;;;;;;;27.05;35.78;95862.31;5048923;28;20029;-67
2022/08/07 08:55:32;;;;;;;1999.90;999.90;;;;;;;26.61;35.69;95869.75;5050349;28;20104;-68
2022/08/07 08:58:01;;;;;;;1999.90;999.90;;;;;;;26.96;34.99;95862.72;5049380;28;20053;-67
2022/08/07 09:00:31;;;;;;;1999.90;999.90;;;;;;;26.95;34.36;95847.50;5032284;28;20098;-69
2022/08/07 09:03:11;;;;;;;1999.90;999.90;;;;;;;27.02;34.88;95865.81;5048595;28;20052;-68
2022/08/07 09:05:36;;;;;;;1999.90;999.90;;;;;;;26.64;36.10;95868.19;5049359;28;20017;-68
2022/08/07 09:08:16;;;;;;;1999.90;999.90;;;;;;;26.78;35.41;95870.94;5050516;28;20500;-68
2022/08/07 09:10:46;;;;;;;1999.90;999.90;;;;;;;27.12;35.24;95854.13;5049908;28;20310;-68
2022/08/07 09:13:31;;;;;;;1999.90;999.90;;;;;;;27.57;34.53;95851.66;5048339;28;20029;-68
2022/08/07 09:16:07;;;;;;;1999.90;999.90;;;;;;;27.47;34.83;95861.44;5049218;28;20021;-69
2022/08/07 09:19:07;;;;;;;1999.90;999.90;;;;;;;26.12;36.18;95849.44;5047662;28;20533;-68
2022/08/07 09:21:38;;;;;;;1999.90;999.90;;;;;;;26.53;36.01;95846.38;5049300;28;20028;-68
2022/08/07 09:24:30;;;;;;;1999.90;999.90;;;;;;;25.56;37.03;95847.31;5040525;28;20033;-68
2022/08/07 09:27:29;;;;;;;1999.90;999.90;;;;;;;25.60;37.36;95862.50;5030115;28;20030;-69
2022/08/07 09:30:01;;;;;;;1999.90;999.90;;;;;;;26.69;35.72;95833.09;5049021;28;20544;-68
2022/08/07 09:32:53;;;;;;;1999.90;999.90;;;;;;;26.48;36.10;95863.13;5031007;28;20037;-67
2022/08/07 09:35:31;;;;;;;1999.90;999.90;;;;;;;27.34;35.02;95854.88;5033258;28;20032;-68
2022/08/07 09:38:24;;;;;;;1999.90;999.90;;;;;;;27.14;35.26;95862.72;5049028;28;20021;-69
2022/08/07 09:41:18;;;;;;;1999.90;999.90;;;;;;;26.87;34.82;95862.31;5050003;28;20025;-68
2022/08/07 09:44:05;;;;;;;1999.90;999.90;;;;;;;27.58;34.05;95853.19;5041697;28;20029;-68
2022/08/07 09:46:37;;;;;;;1999.90;999.90;;;;;;;27.23;34.09;95852.16;5029928;28;20553;-67
2022/08/07 09:49:20;;;;;;;1999.90;999.90;;;;;;;26.78;35.43;95857.28;5020740;28;20032;-68
2022/08/07 09:52:01;;;;;;;1999.90;999.90;;;;;;;27.60;33.75;95812.59;5050016;28;20107;-68
2022/08/07 09:54:53;;;;;;;1999.90;999.90;;;;;;;27.65;34.10;95853.19;5011820;28;20164;-68
2022/08/07 09:57:46;;;;;;;1999.90;999.90;;;;;;;27.57;34.39;95851.66;5028989;28;20394;-68
2022/08/07 10:00:15;;;;;;;1999.90;999.90;;;;;;;27.81;34.18;95834.38;5030777;28;20025;-68
2022/08/07 10:03:06;;;;;;;1999.90;999.90;;;;;;;27.41;34.90;95844.69;5031190;28;20477;-68
2022/08/07 10:05:51;;;;;;;1999.90;999.90;;;;;;;27.31;35.18;95836.53;5046154;28;20036;-67
2022/08/07 10:08:44;;;;;;;1999.90;999.90;;;;;;;28.27;33.77;95832.53;5029193;28;20072;-68
2022/08/07 10:11:31;;;;;;;1999.90;999.90;;;;;;;27.38;33.98;95833.75;5040805;28;20086;-69
2022/08/07 10:14:25;;;;;;;1999.90;999.90;;;;;;;27.62;33.91;95810.25;5046423;28;20032;-68
2022/08/07 10:17:05;;;;;;;1999.90;999.90;;;;;;;27.40;34.01;95829.47;5047204;28;20029;-68
2022/08/07 10:19:52;;;;;;;1999.90;999.90;;;;;;;27.36;34.93;95831.44;5049317;28;20047;-67
2022/08/07 10:22:51;;;;;;;1999.90;999.90;;;;;;;26.87;35.88;95822.19;5048527;28;20061;-68
2022/08/07 10:25:27;;;;;;;1999.90;999.90;;;;;;;27.18;35.12;95825.25;5049097;28;20029;-68
2022/08/07 10:28:10;;;;;;;1999.90;999.90;;;;;;;26.05;35.69;95762.19;5047784;28;20056;-67
2022/08/07 10:31:02;;;;;;;1999.90;999.90;;;;;;;26.48;35.85;95810.53;5037351;28;20041;-68
2022/08/07 10:33:36;;;;;;;;;;;;;;;27.04;35.48;95820.56;5049331;28;20032;-67
2022/08/07 10:36:33;;;;;;;1999.90;999.90;;;;;;;27.65;33.57;95795.78;5047433;28;19920;-67
2022/08/07 10:39:32;;;;;;;1999.90;999.90;;;;;;;26.99;34.52;95823.72;5047672;28;20320;-69
2022/08/07 10:42:10;;;;;;;1999.90;999.90;;;;;;;27.15;34.90;95810.44;5048639;28;20386;-69
2022/08/07 10:45:04;;;;;;;1999.90;999.90;;;;;;;27.18;34.63;95817.06;5051366;28;20032;-69
2022/08/07 10:48:05;;;;;;;1999.90;999.90;;;;;;;25.93;35.94;95809.66;5052045;28;20060;-69
2022/08/07 10:50:44;;;;;;;1999.90;999.90;;;;;;;26.36;35.71;95798.00;5047935;28;20109;-69
2022/08/07 10:53:21;;;;;;;1999.90;999.90;;;;;;;25.85;36.25;95786.31;5033641;28;20146;-68
2022/08/07 10:55:59;;;;;;;1999.90;999.90;;;;;;;26.34;36.21;95789.44;5052109;28;20033;-67
2022/08/07 10:58:46;;;;;;;1999.90;999.90;;;;;;;27.09;35.36;95813.97;5051832;28;20061;-68
2022/08/07 11:01:28;;;;;;;1999.90;999.90;;;;;;;26.69;35.75;95815.97;5051341;28;20168;-69
2022/08/07 11:04:09;;;;;;;1999.90;999.90;;;;;;;26.96;34.97;95773.38;5052565;28;20032;-68
2022/08/07 11:06:40;;;;;;;1999.90;999.90;;;;;;;26.59;35.46;95822.22;5051823;28;20031;-68
2022/08/07 11:09:17;;;;;;;1999.90;999.90;;;;;;;26.67;35.04;95818.31;5053368;28;20108;-67
2022/08/07 11:12:00;;;;;;;1999.90;999.90;;;;;;;26.33;36.37;95815.94;5052719;28;20040;-68
2022/08/07 11:14:32;;;;;;;1999.90;999.90;;;;;;;26.32;36.53;95799.97;5051561;28;20040;-67
2022/08/07 11:17:17;;;;;;;1999.90;999.90;;;;;;;26.82;36.04;95811.66;5051819;28;20056;-67
2022/08/07 11:20:07;;;;;;;1999.90;999.90;;;;;;;25.87;37.25;95816.66;5052523;28;20439;-68